Terminal Aerodrome Forecast
Issued by NWS

Home | Current Version | Previous Version | Text Only | Print | Product List | Glossary On
Versions: 1 2 3 4 5 6 7 8 9 10 11 12 13 14 15 16 17 18 19 20 21 22 23 24 25 26 27 28 29
000
FTUS45 KREV 062322
TAFTRK
TAF
KTRK 062322Z 0700/0724 33011KT 6SM -SHRA BKN050 BKN090
      TEMPO 0700/0702 3SM -TSRA SCT020 BKN035CB
     FM070400 VRB04KT P6SM VCSH SCT050 BKN070
     FM071300 VRB04KT P6SM VCSH SCT035 OVC050
     FM071600 03006KT 4SM -RASN BKN020 OVC040=

USA.gov is the U.S. government's official web portal to all federal, state and local government web resources and services.